createdAt,value
2022-09-17T00:00:53.857Z,100776.34
2022-09-17T00:03:20.327Z,100781.31
2022-09-17T00:05:46.698Z,100777.66
2022-09-17T00:08:14.881Z,100774.16
2022-09-17T00:10:43.370Z,100788.22
2022-09-17T00:13:10.384Z,100779.06
2022-09-17T00:15:44.566Z,100782.78
2022-09-17T00:18:12.410Z,100781.41
2022-09-17T00:20:43.993Z,100781.31
2022-09-17T00:23:11.514Z,100779.13
2022-09-17T00:25:42.446Z,100793.19
2022-09-17T00:28:09.535Z,100788.13
2022-09-17T00:30:38.971Z,100783.72
2022-09-17T00:33:05.329Z,100789.94
2022-09-17T00:35:31.785Z,100791.88
2022-09-17T00:37:58.142Z,100796.19
2022-09-17T00:40:24.670Z,100799.94
2022-09-17T00:42:53.281Z,100803.13
2022-09-17T00:45:20.285Z,100807.09
2022-09-17T00:47:57.401Z,100806.75
2022-09-17T00:50:31.317Z,100808.75
2022-09-17T00:53:05.296Z,100804.44
2022-09-17T00:55:36.874Z,100808.44
2022-09-17T00:58:06.853Z,100812.63
2022-09-17T01:00:33.593Z,100807.25
2022-09-17T01:03:00.472Z,100809.88
2022-09-17T01:05:47.163Z,100815.88
2022-09-17T01:08:48.924Z,100816.44
2022-09-17T01:11:36.216Z,100812.09
2022-09-17T01:14:14.464Z,100808.28
2022-09-17T01:16:54.100Z,100810.53
2022-09-17T01:19:38.734Z,100805.63
2022-09-17T01:22:17.922Z,100803.47
2022-09-17T01:25:25.037Z,100816.63
2022-09-17T01:28:20.809Z,100816.44
2022-09-17T01:31:01.368Z,100800.16
2022-09-17T01:33:50.776Z,100811.34
2022-09-17T01:36:28.946Z,100804.50
2022-09-17T01:39:25.715Z,100807.53
2022-09-17T01:42:02.759Z,100816.63
2022-09-17T01:44:31.752Z,100807.25
2022-09-17T01:47:16.672Z,100812.75
2022-09-17T01:49:48.226Z,100821.28
2022-09-17T01:52:15.799Z,100816.56
2022-09-17T01:54:54.173Z,100815.00
2022-09-17T01:57:33.687Z,100815.19
2022-09-17T02:00:19.704Z,100818.44
2022-09-17T02:03:26.335Z,100810.81
2022-09-17T02:06:06.694Z,100818.09
2022-09-17T02:08:42.123Z,100822.91
2022-09-17T02:11:11.590Z,100818.72
2022-09-17T02:13:59.874Z,100820.53
2022-09-17T02:16:32.922Z,100834.63
2022-09-17T02:19:16.580Z,100829.34
2022-09-17T02:21:55.362Z,100830.72
2022-09-17T02:24:26.855Z,100819.28
2022-09-17T02:27:00.899Z,100820.53
2022-09-17T02:29:37.693Z,100829.06
2022-09-17T02:32:04.833Z,100837.16
2022-09-17T02:34:31.622Z,100818.66
2022-09-17T02:36:59.463Z,100819.09
2022-09-17T02:39:26.994Z,100815.34
2022-09-17T02:42:05.618Z,100817.88
2022-09-17T02:44:43.222Z,100811.53
2022-09-17T02:47:28.820Z,100823.63
2022-09-17T02:50:14.764Z,100827.16
2022-09-17T02:53:09.194Z,100834.34
2022-09-17T02:55:51.086Z,100828.09
2022-09-17T02:58:17.448Z,100833.16
2022-09-17T03:00:45.320Z,100832.69
2022-09-17T03:03:30.618Z,100837.63
2022-09-17T03:05:57.995Z,100833.78
2022-09-17T03:08:37.060Z,100835.09
2022-09-17T03:11:05.405Z,100838.34
2022-09-17T03:13:32.172Z,100845.34
2022-09-17T03:15:58.568Z,100835.53
2022-09-17T03:18:25.323Z,100837.63
2022-09-17T03:20:51.651Z,100833.81
2022-09-17T03:23:18.021Z,100839.09
2022-09-17T03:25:46.235Z,100833.44
2022-09-17T03:28:12.746Z,100837.97
2022-09-17T03:30:39.131Z,100841.88
2022-09-17T03:33:05.530Z,100829.25
2022-09-17T03:35:31.897Z,100830.56
2022-09-17T03:37:58.262Z,100834.25
2022-09-17T03:40:24.755Z,100837.41
2022-09-17T03:42:51.227Z,100842.25
2022-09-17T03:45:17.801Z,100839.81
2022-09-17T03:47:44.185Z,100842.25
2022-09-17T03:50:10.696Z,100841.00
2022-09-17T03:52:37.126Z,100842.25
2022-09-17T03:55:04.030Z,100841.91
2022-09-17T03:57:30.427Z,100835.88
2022-09-17T03:59:56.794Z,100837.44
2022-09-17T04:02:23.309Z,100841.88
2022-09-17T04:04:49.730Z,100843.91
2022-09-17T04:07:16.080Z,100846.16
2022-09-17T04:09:42.437Z,100853.88
2022-09-17T04:12:09.047Z,100843.31
2022-09-17T04:14:35.489Z,100853.31
2022-09-17T04:17:02.094Z,100852.16
2022-09-17T04:19:28.711Z,100852.59
2022-09-17T04:21:55.092Z,100859.22
2022-09-17T04:24:21.468Z,100862.88
2022-09-17T04:26:47.837Z,100864.97
2022-09-17T04:29:14.636Z,100865.22
2022-09-17T04:31:41.100Z,100864.59
2022-09-17T04:34:07.546Z,100862.03
2022-09-17T04:36:33.941Z,100864.59
2022-09-17T04:39:00.303Z,100865.97
2022-09-17T04:41:26.693Z,100865.88
2022-09-17T04:43:53.045Z,100871.03
2022-09-17T04:46:19.478Z,100864.13
2022-09-17T04:48:45.911Z,100869.78
2022-09-17T04:51:12.388Z,100869.78
2022-09-17T04:53:38.726Z,100871.59
2022-09-17T04:56:05.463Z,100874.59
2022-09-17T04:58:32.911Z,100874.22
2022-09-17T05:00:59.372Z,100884.66
2022-09-17T05:03:26.081Z,100887.84
2022-09-17T05:05:52.478Z,100886.75
2022-09-17T05:08:18.841Z,100886.13
2022-09-17T05:10:45.240Z,100881.50
2022-09-17T05:13:11.619Z,100880.25
2022-09-17T05:15:38.086Z,100886.47
2022-09-17T05:18:04.503Z,100892.44
2022-09-17T05:20:30.969Z,100894.56
2022-09-17T05:22:57.300Z,100888.47
2022-09-17T05:25:26.488Z,100880.75
2022-09-17T05:27:53.691Z,100885.53
2022-09-17T05:30:20.363Z,100889.19
2022-09-17T05:32:47.181Z,100894.44
2022-09-17T05:35:13.965Z,100892.78
2022-09-17T05:37:40.545Z,100897.09
2022-09-17T05:40:08.325Z,100905.63
2022-09-17T05:42:35.041Z,100908.47
2022-09-17T05:45:01.503Z,100913.25
2022-09-17T05:47:27.852Z,100923.88
2022-09-17T05:49:54.233Z,100914.03
2022-09-17T05:52:20.568Z,100915.53
2022-09-17T05:54:47.039Z,100920.13
2022-09-17T05:57:13.444Z,100922.19
2022-09-17T05:59:39.828Z,100922.91
2022-09-17T06:02:06.375Z,100925.59
2022-09-17T06:04:34.874Z,100931.75
2022-09-17T06:07:06.550Z,100929.31
2022-09-17T06:09:35.570Z,100935.66
2022-09-17T06:12:02.423Z,100935.75
2022-09-17T06:14:28.751Z,100926.13
2022-09-17T06:16:55.997Z,100926.31
2022-09-17T06:19:22.561Z,100930.56
2022-09-17T06:21:50.406Z,100937.75
2022-09-17T06:24:16.926Z,100933.84
2022-09-17T06:26:43.319Z,100944.19
2022-09-17T06:29:10.005Z,100933.75
2022-09-17T06:31:36.368Z,100935.84
2022-09-17T06:34:02.871Z,100942.47
2022-09-17T06:36:29.199Z,100945.22
2022-09-17T06:38:55.570Z,100944.56
2022-09-17T06:41:21.940Z,100947.00
2022-09-17T06:43:48.309Z,100945.00
2022-09-17T06:46:15.036Z,100947.25
2022-09-17T06:48:41.470Z,100959.25
2022-09-17T06:51:10.465Z,100946.81
2022-09-17T06:53:38.068Z,100960.28
2022-09-17T06:56:06.911Z,100953.03
2022-09-17T06:58:35.032Z,100960.28
2022-09-17T07:01:02.479Z,100966.84
2022-09-17T07:03:30.391Z,100963.66
2022-09-17T07:05:57.994Z,100971.47
2022-09-17T07:08:25.902Z,100964.03
2022-09-17T07:10:56.358Z,100972.59
2022-09-17T07:13:23.310Z,100970.38
2022-09-17T07:16:01.268Z,100974.69
2022-09-17T07:18:27.947Z,100959.28
2022-09-17T07:20:55.138Z,100964.84
2022-09-17T07:23:26.782Z,100957.50
2022-09-17T07:26:00.692Z,100950.91
2022-09-17T07:28:28.709Z,100946.19
2022-09-17T07:30:56.127Z,100951.56
2022-09-17T07:33:25.828Z,100952.50
2022-09-17T07:36:04.564Z,100947.75
2022-09-17T07:38:31.550Z,100944.28
2022-09-17T07:41:13.580Z,100946.81
2022-09-17T07:43:41.329Z,100947.88
2022-09-17T07:46:13.125Z,100942.84
2022-09-17T07:48:39.526Z,100942.69
2022-09-17T07:51:06.105Z,100951.28
2022-09-17T07:53:32.955Z,100948.06
2022-09-17T07:56:00.531Z,100947.50
2022-09-17T07:58:35.935Z,100952.66
2022-09-17T08:01:10.512Z,100939.22
2022-09-17T08:03:38.397Z,100947.22
2022-09-17T08:06:07.578Z,100942.34
2022-09-17T08:08:35.785Z,100947.63
2022-09-17T08:11:06.077Z,100946.34
2022-09-17T08:13:32.566Z,100952.13
2022-09-17T08:16:04.578Z,100946.00
2022-09-17T08:18:31.233Z,100946.41
2022-09-17T08:20:59.441Z,100939.66
2022-09-17T08:23:26.478Z,100945.75
2022-09-17T08:25:57.392Z,100939.66
2022-09-17T08:28:25.430Z,100946.72
2022-09-17T08:30:52.803Z,100948.31
2022-09-17T08:33:19.722Z,100941.00
2022-09-17T08:35:59.350Z,100945.81
2022-09-17T08:38:33.496Z,100949.59
2022-09-17T08:41:09.833Z,100950.50
2022-09-17T08:43:56.373Z,100944.13
2022-09-17T08:46:24.936Z,100941.53
2022-09-17T08:49:07.882Z,100953.66
2022-09-17T08:51:42.841Z,100946.19
2022-09-17T08:54:21.006Z,100947.88
2022-09-17T08:56:54.944Z,100946.38
2022-09-17T08:59:35.132Z,100944.41
2022-09-17T09:02:28.956Z,100949.19
2022-09-17T09:05:12.903Z,100967.63
2022-09-17T09:07:55.180Z,100944.19
2022-09-17T09:10:27.389Z,100950.88
2022-09-17T09:12:56.348Z,100949.03
2022-09-17T09:15:36.171Z,100955.16
2022-09-17T09:18:22.816Z,100952.28
2022-09-17T09:20:55.456Z,100954.16
2022-09-17T09:23:49.426Z,100956.22
2022-09-17T09:26:24.029Z,100946.63
2022-09-17T09:29:17.475Z,100952.22
2022-09-17T09:32:24.629Z,100943.03
2022-09-17T09:34:54.909Z,100945.22
2022-09-17T09:37:28.433Z,100935.22
2022-09-17T09:40:01.274Z,100940.13
2022-09-17T09:42:32.228Z,100941.09
2022-09-17T09:45:12.080Z,100944.38
2022-09-17T09:47:48.210Z,100941.91
2022-09-17T09:50:42.957Z,100946.41
2022-09-17T09:53:39.168Z,100942.38
2022-09-17T09:56:11.671Z,100938.72
2022-09-17T09:58:40.246Z,100944.41
2022-09-17T10:01:15.949Z,100938.09
2022-09-17T10:03:46.013Z,100942.44
2022-09-17T10:06:14.296Z,100926.25
2022-09-17T10:09:02.166Z,100947.13
2022-09-17T10:11:33.129Z,100948.50
2022-09-17T10:14:26.064Z,100939.38
2022-09-17T10:17:12.066Z,100937.84
2022-09-17T10:19:38.699Z,100936.81
2022-09-17T10:22:39.474Z,100930.53
2022-09-17T10:25:18.517Z,100919.53
2022-09-17T10:27:47.000Z,100924.19
2022-09-17T10:30:15.258Z,100913.03
2022-09-17T10:33:23.443Z,100914.25
2022-09-17T10:36:15.807Z,100924.53
2022-09-17T10:38:49.781Z,100923.09
2022-09-17T10:41:21.863Z,100918.34
2022-09-17T10:43:51.584Z,100919.59
2022-09-17T10:46:28.052Z,100914.28
2022-09-17T10:48:58.396Z,100911.09
2022-09-17T10:51:26.125Z,100908.69
2022-09-17T10:54:28.409Z,100903.22
2022-09-17T10:56:59.390Z,100897.66
2022-09-17T10:59:32.906Z,100894.44
2022-09-17T11:02:18.014Z,100894.28
2022-09-17T11:05:04.900Z,100892.50
2022-09-17T11:08:16.150Z,100885.19
2022-09-17T11:11:03.656Z,100898.16
2022-09-17T11:13:56.095Z,100899.16
2022-09-17T11:16:38.404Z,100898.03
2022-09-17T11:19:23.420Z,100897.78
2022-09-17T11:21:55.203Z,100895.69
2022-09-17T11:25:10.843Z,100897.22
2022-09-17T11:27:58.970Z,100891.88
2022-09-17T11:30:30.892Z,100889.50
2022-09-17T11:33:15.803Z,100891.75
2022-09-17T11:35:49.330Z,100903.06
2022-09-17T11:38:39.632Z,100909.00
2022-09-17T11:41:11.975Z,100894.56
2022-09-17T11:43:44.833Z,100905.06
2022-09-17T11:46:19.967Z,100926.44
2022-09-17T11:48:55.045Z,100930.69
2022-09-17T11:51:47.776Z,100923.63
2022-09-17T11:54:24.562Z,100939.28
2022-09-17T11:56:54.358Z,100948.38
2022-09-17T11:59:32.491Z,100947.22
2022-09-17T12:02:04.803Z,100948.22
2022-09-17T12:04:59.978Z,100946.41
2022-09-17T12:07:47.358Z,100944.97
2022-09-17T12:10:32.219Z,100945.31
2022-09-17T12:13:21.931Z,100941.44
2022-09-17T12:16:04.918Z,100937.88
2022-09-17T12:18:57.961Z,100929.00
2022-09-17T12:21:30.336Z,100924.41
2022-09-17T12:24:08.809Z,100943.09
2022-09-17T12:26:50.422Z,100936.28
2022-09-17T12:29:35.608Z,100942.91
2022-09-17T12:32:20.970Z,100942.72
2022-09-17T12:34:58.109Z,100975.84
2022-09-17T12:37:40.835Z,100988.59
2022-09-17T12:40:11.744Z,100965.28
2022-09-17T12:42:44.742Z,100973.16
2022-09-17T12:45:32.638Z,100975.94
2022-09-17T12:48:23.865Z,100962.22
2022-09-17T12:51:08.959Z,100955.03
2022-09-17T12:53:37.054Z,100953.34
2022-09-17T12:56:20.200Z,100941.69
2022-09-17T12:59:05.383Z,100924.63
2022-09-17T13:01:47.700Z,100921.41
2022-09-17T13:04:43.581Z,100915.97
2022-09-17T13:07:18.497Z,100912.72
2022-09-17T13:10:02.247Z,100906.03
2022-09-17T13:12:31.281Z,100900.03
2022-09-17T13:15:07.348Z,100894.69
2022-09-17T13:18:12.860Z,100892.97
2022-09-17T13:21:15.097Z,100892.31
2022-09-17T13:23:44.545Z,100883.88
2022-09-17T13:26:18.992Z,100882.06
2022-09-17T13:28:50.795Z,100886.16
2022-09-17T13:31:44.305Z,100883.38
2022-09-17T13:34:19.696Z,100882.19
2022-09-17T13:36:47.966Z,100892.78
2022-09-17T13:39:46.412Z,100878.28
2022-09-17T13:42:28.367Z,100878.38
2022-09-17T13:45:13.227Z,100864.25
2022-09-17T13:48:26.524Z,100863.09
2022-09-17T13:50:53.568Z,100853.81
2022-09-17T13:53:27.205Z,100851.22
2022-09-17T13:55:58.467Z,100856.75
2022-09-17T13:58:31.550Z,100871.88
2022-09-17T14:01:12.037Z,100872.72
2022-09-17T14:03:41.891Z,100888.78
2022-09-17T14:06:08.546Z,100926.91
2022-09-17T14:08:43.944Z,100971.66
2022-09-17T14:11:22.592Z,100985.94
2022-09-17T14:14:04.384Z,100963.13
2022-09-17T14:16:42.858Z,100960.28
2022-09-17T14:19:15.331Z,100943.75
2022-09-17T14:22:00.513Z,100938.59
2022-09-17T14:24:32.230Z,100941.34
2022-09-17T14:27:06.335Z,100932.69
2022-09-17T14:30:12.201Z,100931.47
2022-09-17T14:33:15.132Z,100929.41
2022-09-17T14:35:56.270Z,100941.56
2022-09-17T14:38:33.702Z,100945.50
2022-09-17T14:41:05.068Z,100935.59
2022-09-17T14:43:52.780Z,100932.72
2022-09-17T14:46:29.617Z,100918.91
2022-09-17T14:49:22.946Z,100913.69
2022-09-17T14:51:54.521Z,100909.47
2022-09-17T14:54:36.097Z,100905.81
2022-09-17T14:57:21.182Z,100914.81
2022-09-17T14:59:51.487Z,100906.06
2022-09-17T15:02:37.797Z,100903.97
2022-09-17T15:05:26.742Z,100909.31
2022-09-17T15:08:05.686Z,100905.44
2022-09-17T15:10:32.735Z,100907.06
2022-09-17T15:12:59.199Z,100899.06
2022-09-17T15:15:26.782Z,100902.97
2022-09-17T15:17:54.264Z,100900.53
2022-09-17T15:20:24.135Z,100905.63
2022-09-17T15:23:06.213Z,100907.47
2022-09-17T15:25:34.426Z,100897.47
2022-09-17T15:28:08.718Z,100909.50
2022-09-17T15:30:35.198Z,100907.03
2022-09-17T15:33:01.745Z,100901.72
2022-09-17T15:35:33.327Z,100911.72
2022-09-17T15:38:22.772Z,100905.38
2022-09-17T15:40:50.670Z,100913.16
2022-09-17T15:43:38.592Z,100907.03
2022-09-17T15:46:27.518Z,100905.00
2022-09-17T15:48:55.671Z,100905.78
2022-09-17T15:51:34.398Z,100905.00
2022-09-17T15:54:05.058Z,100914.75
2022-09-17T15:56:34.228Z,100902.69
2022-09-17T15:59:26.473Z,100916.28
2022-09-17T16:01:56.189Z,100916.31
2022-09-17T16:04:28.534Z,100912.66
2022-09-17T16:07:12.237Z,100915.06
2022-09-17T16:09:49.811Z,100926.09
2022-09-17T16:12:22.351Z,100917.13
2022-09-17T16:14:52.058Z,100914.47
2022-09-17T16:17:33.024Z,100926.06
2022-09-17T16:20:05.910Z,100931.97
2022-09-17T16:22:33.201Z,100926.25
2022-09-17T16:24:59.602Z,100933.00
2022-09-17T16:27:30.646Z,100948.44
2022-09-17T16:30:04.443Z,100945.78
2022-09-17T16:32:30.987Z,100943.19
2022-09-17T16:34:57.519Z,100948.06
2022-09-17T16:37:23.972Z,100950.38
2022-09-17T16:39:51.057Z,100957.28
2022-09-17T16:42:17.470Z,100960.13
2022-09-17T16:44:43.882Z,100962.38
2022-09-17T16:47:10.252Z,100963.16
2022-09-17T16:49:36.736Z,100949.59
2022-09-17T16:52:03.199Z,100958.75
2022-09-17T16:54:29.536Z,100966.03
2022-09-17T16:56:55.996Z,100963.38
2022-09-17T16:59:22.621Z,100964.03
2022-09-17T17:01:50.075Z,100958.91
2022-09-17T17:04:17.328Z,100966.66
2022-09-17T17:06:43.660Z,100968.91
2022-09-17T17:09:12.176Z,100967.66
2022-09-17T17:11:39.168Z,100966.41
2022-09-17T17:14:05.841Z,100966.88
2022-09-17T17:16:32.365Z,100960.06
2022-09-17T17:18:58.766Z,100967.63
2022-09-17T17:21:25.217Z,100958.25
2022-09-17T17:23:52.306Z,100963.56
2022-09-17T17:26:18.697Z,100970.59
2022-09-17T17:28:45.117Z,100977.16
2022-09-17T17:31:12.084Z,100973.28
2022-09-17T17:33:38.698Z,100971.13
2022-09-17T17:36:08.322Z,100969.53
2022-09-17T17:38:35.704Z,100971.97
2022-09-17T17:41:15.275Z,100976.16
2022-09-17T17:43:42.002Z,100980.66
2022-09-17T17:46:10.120Z,100977.28
2022-09-17T17:48:37.105Z,100979.66
2022-09-17T17:51:06.250Z,100980.47
2022-09-17T17:53:32.689Z,100980.22
2022-09-17T17:56:01.585Z,100985.84
2022-09-17T17:58:29.037Z,100987.13
2022-09-17T18:00:56.243Z,100983.22
2022-09-17T18:03:25.061Z,100985.91
2022-09-17T18:05:58.515Z,100987.19
2022-09-17T18:08:25.393Z,100992.75
2022-09-17T18:10:56.186Z,100997.28
2022-09-17T18:13:23.677Z,101002.75
2022-09-17T18:15:58.817Z,101005.47
2022-09-17T18:18:44.452Z,101008.19
2022-09-17T18:21:22.943Z,101006.97
2022-09-17T18:23:50.100Z,101019.94
2022-09-17T18:26:21.421Z,101021.88
2022-09-17T18:28:48.026Z,101017.00
2022-09-17T18:31:32.198Z,101022.41
2022-09-17T18:34:07.302Z,101020.63
2022-09-17T18:36:35.838Z,101018.75
2022-09-17T18:41:52.714Z,101019.22
2022-09-17T18:44:21.490Z,101020.91
2022-09-17T18:46:49.493Z,101024.72
2022-09-17T18:49:16.204Z,101027.97
2022-09-17T18:51:42.716Z,101028.00
2022-09-17T18:54:10.063Z,101022.66
2022-09-17T18:56:37.120Z,101030.31
2022-09-17T18:59:08.001Z,101020.56
2022-09-17T19:01:34.904Z,101012.94
2022-09-17T19:04:01.557Z,101020.03
2022-09-17T19:06:28.390Z,101017.94
2022-09-17T19:09:02.150Z,101021.94
2022-09-17T19:11:28.621Z,101028.69
2022-09-17T19:13:55.040Z,101028.31
2022-09-17T19:16:21.551Z,101033.75
2022-09-17T19:18:48.068Z,101036.59
2022-09-17T19:21:16.827Z,101042.78
2022-09-17T19:23:45.000Z,101037.31
2022-09-17T19:26:14.696Z,101037.56
2022-09-17T19:28:41.142Z,101039.75
2022-09-17T19:31:21.957Z,101046.16
2022-09-17T19:33:48.458Z,101036.03
2022-09-17T19:36:17.243Z,101043.47
2022-09-17T19:38:44.599Z,101039.25
2022-09-17T19:41:14.526Z,101041.59
2022-09-17T19:43:41.306Z,101042.44
2022-09-17T19:46:15.082Z,101034.94
2022-09-17T19:48:45.889Z,101037.22
2022-09-17T19:51:13.082Z,101040.09
2022-09-17T19:53:39.694Z,101035.19
2022-09-17T19:56:10.132Z,101043.56
2022-09-17T19:58:36.518Z,101045.63
2022-09-17T20:01:02.900Z,101040.16
2022-09-17T20:03:29.563Z,101041.81
2022-09-17T20:06:04.077Z,101036.69
2022-09-17T20:08:31.119Z,101044.81
2022-09-17T20:11:07.429Z,101045.78
2022-09-17T20:13:34.661Z,101049.28
2022-09-17T20:16:15.909Z,101053.69
2022-09-17T20:18:44.004Z,101050.03
2022-09-17T20:21:16.986Z,101051.47
2022-09-17T20:23:43.904Z,101052.44
2022-09-17T20:26:11.756Z,101051.97
2022-09-17T20:28:38.183Z,101060.28
2022-09-17T20:31:07.364Z,101057.94
2022-09-17T20:33:34.422Z,101058.38
2022-09-17T20:36:02.535Z,101054.41
2022-09-17T20:39:10.643Z,101050.19
2022-09-17T20:41:17.111Z,101054.94
2022-09-17T20:43:46.445Z,101051.28
2022-09-17T20:46:14.582Z,101067.94
2022-09-17T20:48:41.804Z,101067.00
2022-09-17T20:51:11.953Z,101060.00
2022-09-17T20:53:39.332Z,101068.75
2022-09-17T20:56:05.651Z,101070.31
2022-09-17T20:58:34.291Z,101070.56
2022-09-17T21:01:17.738Z,101067.13
2022-09-17T21:03:45.338Z,101073.66
2022-09-17T21:06:16.359Z,101071.13
2022-09-17T21:08:43.466Z,101076.13
2022-09-17T21:11:10.561Z,101073.94
2022-09-17T21:13:37.049Z,101069.81
2022-09-17T21:16:03.701Z,101072.09
2022-09-17T21:18:30.190Z,101070.13
2022-09-17T21:20:56.679Z,101075.47
2022-09-17T21:23:27.483Z,101077.88
2022-09-17T21:26:02.089Z,101079.06
2022-09-17T21:28:30.637Z,101081.69
2022-09-17T21:31:05.617Z,101081.63
2022-09-17T21:33:32.061Z,101078.69
2022-09-17T21:36:07.546Z,101084.84
2022-09-17T21:38:34.138Z,101083.69
2022-09-17T21:41:06.788Z,101084.69
2022-09-17T21:43:34.613Z,101091.47
2022-09-17T21:46:08.893Z,101080.53
2022-09-17T21:48:41.350Z,101093.56
2022-09-17T21:51:10.414Z,101093.81
2022-09-17T21:53:37.728Z,101086.28
2022-09-17T21:56:11.086Z,101092.19
2022-09-17T21:58:38.487Z,101092.66
2022-09-17T22:01:06.239Z,101092.66
2022-09-17T22:03:32.699Z,101090.34
2022-09-17T22:06:11.296Z,101091.28
2022-09-17T22:08:38.577Z,101090.53
2022-09-17T22:11:11.831Z,101096.94
2022-09-17T22:13:39.134Z,101105.88
2022-09-17T22:16:07.627Z,101097.41
2022-09-17T22:18:36.032Z,101101.22
2022-09-17T22:21:23.433Z,101094.47
2022-09-17T22:23:51.888Z,101099.03
2022-09-17T22:26:20.997Z,101099.00
2022-09-17T22:28:48.385Z,101098.13
2022-09-17T22:31:14.853Z,101097.94
2022-09-17T22:33:44.521Z,101098.66
2022-09-17T22:36:12.871Z,101097.25
2022-09-17T22:38:40.092Z,101098.38
2022-09-17T22:41:14.906Z,101095.91
2022-09-17T22:43:41.483Z,101094.81
2022-09-17T22:46:31.169Z,101101.63
2022-09-17T22:48:58.246Z,101092.53
2022-09-17T22:51:26.536Z,101090.91
2022-09-17T22:53:52.910Z,101093.81
2022-09-17T22:56:23.175Z,101087.81
2022-09-17T22:58:50.309Z,101090.44
2022-09-17T23:01:21.902Z,101094.06
2022-09-17T23:03:50.436Z,101090.25
2022-09-17T23:06:19.002Z,101088.16
2022-09-17T23:08:45.587Z,101089.09
2022-09-17T23:11:24.031Z,101082.25
2022-09-17T23:13:51.278Z,101081.16
2022-09-17T23:16:18.885Z,101086.63
2022-09-17T23:18:45.757Z,101080.00
2022-09-17T23:21:14.928Z,101079.91
2022-09-17T23:23:42.603Z,101075.25
2022-09-17T23:26:12.577Z,101086.97
2022-09-17T23:28:39.166Z,101084.53
2022-09-17T23:31:11.467Z,101087.38
2022-09-17T23:33:38.147Z,101075.72
2022-09-17T23:36:12.746Z,101076.34
2022-09-17T23:38:41.018Z,101073.59
2022-09-17T23:41:16.905Z,101072.72
2022-09-17T23:43:45.576Z,101069.25
2022-09-17T23:46:12.493Z,101066.72
2022-09-17T23:48:39.274Z,101076.09
2022-09-17T23:51:06.435Z,101064.97
2022-09-17T23:53:34.243Z,101070.97
2022-09-17T23:56:01.221Z,101061.53
2022-09-17T23:58:33.709Z,101063.69
